Time;durP1;ratioP1;P1;durP2;ratioP2;P2;SDS_P1;SDS_P2;PMS_P1;PMS_P2;Temp;Humidity;BMP_temperature;BMP_pressure;BME280_temperature;BME280_humidity;BME280_pressure;Samples;Min_cycle;Max_cycle;Signal;HPM_P1;HPM_P2
2021/11/24 00:00:22;;;;;;;0.10;0.10;;;;;;;;;;5980692;24;20024;-87
2021/11/24 00:02:48;;;;;;;0.10;0.10;;;;;;;;;;5980715;24;20012;-86
2021/11/24 00:05:14;;;;;;;0.10;0.10;;;;;;;;;;5980817;24;20087;-87
2021/11/24 00:07:41;;;;;;;0.10;0.10;;;;;;;;;;6004101;23;20403;-87
2021/11/24 00:10:07;;;;;;;0.10;0.10;;;;;;;;;;5980842;24;20023;-87
2021/11/24 00:12:34;;;;;;;0.10;0.10;;;;;;;;;;6004145;23;20049;-87
2021/11/24 00:15:00;;;;;;;0.10;0.10;;;;;;;;;;6004486;23;20450;-88
2021/11/24 00:17:26;;;;;;;0.10;0.10;;;;;;;;;;5980482;24;20044;-87
2021/11/24 00:19:51;;;;;;;0.10;0.10;;;;;;;;;;5980432;24;20012;-86
2021/11/24 00:22:18;;;;;;;0.10;0.10;;;;;;;;;;5980463;24;20012;-87
2021/11/24 00:24:44;;;;;;;0.10;0.10;;;;;;;;;;5979874;24;20383;-88
2021/11/24 00:27:10;;;;;;;0.10;0.10;;;;;;;;;;5980285;24;20069;-88
2021/11/24 00:29:36;;;;;;;0.10;0.10;;;;;;;;;;5980283;24;20073;-87
2021/11/24 00:32:02;;;;;;;0.10;0.10;;;;;;;;;;5980265;24;20016;-87
2021/11/24 00:34:28;;;;;;;0.10;0.10;;;;;;;;;;5980618;24;20020;-87
2021/11/24 00:36:54;;;;;;;0.10;0.10;;;;;;;;;;5980167;24;20020;-87
2021/11/24 00:39:20;;;;;;;0.10;0.10;;;;;;;;;;5980288;24;20023;-87
2021/11/24 00:41:46;;;;;;;0.10;0.10;;;;;;;;;;5980179;24;20023;-87
2021/11/24 00:44:12;;;;;;;0.10;0.10;;;;;;;;;;5980132;24;20016;-87
2021/11/24 00:46:39;;;;;;;0.10;0.10;;;;;;;;;;5980122;24;20039;-87
2021/11/24 00:49:05;;;;;;;0.10;0.10;;;;;;;;;;5980300;24;20020;-87
2021/11/24 00:51:31;;;;;;;0.10;0.10;;;;;;;;;;5980282;24;20020;-87
2021/11/24 00:53:57;;;;;;;0.10;0.10;;;;;;;;;;5980328;24;20031;-87
2021/11/24 00:56:23;;;;;;;0.10;0.10;;;;;;;;;;5980090;24;20076;-87
2021/11/24 00:58:49;;;;;;;0.10;0.10;;;;;;;;;;6003507;23;20346;-87
2021/11/24 01:01:15;;;;;;;0.10;0.10;;;;;;;;;;6003355;23;20027;-86
2021/11/24 01:03:40;;;;;;;0.10;0.10;;;;;;;;;;6003280;23;20020;-87
2021/11/24 01:06:06;;;;;;;0.10;0.10;;;;;;;;;;5980075;24;20023;-87
2021/11/24 01:08:32;;;;;;;0.10;0.10;;;;;;;;;;5980200;24;20071;-87
2021/11/24 01:11:01;;;;;;;0.85;0.38;;;;;;;;;;5980062;24;20027;-86
2021/11/24 01:13:27;;;;;;;0.10;0.10;;;;;;;;;;5980000;24;20016;-87
2021/11/24 01:15:53;;;;;;;0.10;0.10;;;;;;;;;;5979834;24;20076;-86
2021/11/24 01:18:21;;;;;;;0.10;0.10;;;;;;;;;;6003496;23;20384;-86
2021/11/24 01:20:47;;;;;;;0.10;0.10;;;;;;;;;;5979878;24;20020;-86
2021/11/24 01:23:13;;;;;;;0.10;0.10;;;;;;;;;;5979923;24;20466;-86
2021/11/24 01:25:39;;;;;;;0.10;0.10;;;;;;;;;;5979894;24;20016;-86
2021/11/24 01:28:05;;;;;;;0.10;0.10;;;;;;;;;;5979999;24;20012;-87
2021/11/24 01:30:31;;;;;;;0.10;0.10;;;;;;;;;;5979918;24;20462;-87
2021/11/24 01:32:57;;;;;;;0.10;0.10;;;;;;;;;;5980117;24;20016;-86
2021/11/24 01:35:23;;;;;;;0.10;0.10;;;;;;;;;;5980015;24;20095;-86
2021/11/24 01:37:49;;;;;;;0.10;0.10;;;;;;;;;;5979793;24;20051;-87
2021/11/24 01:40:15;;;;;;;0.10;0.10;;;;;;;;;;5979898;24;20480;-87
2021/11/24 01:42:41;;;;;;;0.10;0.10;;;;;;;;;;6003597;23;20087;-87
2021/11/24 01:45:07;;;;;;;0.10;0.10;;;;;;;;;;5979834;24;20028;-87
2021/11/24 01:47:33;;;;;;;0.10;0.10;;;;;;;;;;5979920;24;20039;-87
2021/11/24 01:49:59;;;;;;;0.10;0.10;;;;;;;;;;5980073;24;20019;-86
2021/11/24 01:52:25;;;;;;;0.10;0.10;;;;;;;;;;5980209;24;20016;-86
2021/11/24 01:54:51;;;;;;;0.10;0.10;;;;;;;;;;5979954;24;20020;-86
2021/11/24 01:57:18;;;;;;;0.10;0.10;;;;;;;;;;6003328;23;20024;-86
2021/11/24 01:59:46;;;;;;;0.10;0.10;;;;;;;;;;5979724;24;20016;-86
2021/11/24 02:02:12;;;;;;;0.10;0.10;;;;;;;;;;6003282;23;20076;-86
2021/11/24 02:04:38;;;;;;;0.10;0.10;;;;;;;;;;5979835;24;20016;-86
2021/11/24 02:07:04;;;;;;;0.10;0.10;;;;;;;;;;5980044;24;20099;-87
2021/11/24 02:09:30;;;;;;;0.10;0.10;;;;;;;;;;5980069;24;20053;-87
2021/11/24 02:11:57;;;;;;;0.10;0.10;;;;;;;;;;5979870;24;20176;-87
2021/11/24 02:14:23;;;;;;;0.10;0.10;;;;;;;;;;5980346;24;20430;-87
2021/11/24 02:16:50;;;;;;;0.10;0.10;;;;;;;;;;5981714;24;20016;-87
2021/11/24 02:19:16;;;;;;;0.10;0.10;;;;;;;;;;5981645;24;20052;-87
2021/11/24 02:21:46;;;;;;;0.10;0.10;;;;;;;;;;5981594;24;20395;-87
2021/11/24 02:24:12;;;;;;;0.10;0.10;;;;;;;;;;6005117;23;20032;-87
2021/11/24 02:26:39;;;;;;;0.10;0.10;;;;;;;;;;6004607;23;20439;-87
2021/11/24 02:29:04;;;;;;;0.10;0.10;;;;;;;;;;6004966;23;20022;-87
2021/11/24 02:31:30;;;;;;;0.10;0.10;;;;;;;;;;5981499;24;20060;-87
2021/11/24 02:33:57;;;;;;;0.10;0.10;;;;;;;;;;5981540;24;20023;-87
2021/11/24 02:36:23;;;;;;;0.10;0.10;;;;;;;;;;6004818;23;20016;-87
2021/11/24 02:38:49;;;;;;;0.10;0.10;;;;;;;;;;5981543;24;20131;-88
2021/11/24 02:41:15;;;;;;;0.00;0.00;;;;;;;;;;6004956;23;20450;-87
2021/11/24 02:43:41;;;;;;;0.10;0.10;;;;;;;;;;5979904;24;20456;-87
2021/11/24 02:46:07;;;;;;;0.10;0.10;;;;;;;;;;6003524;23;20526;-87
2021/11/24 02:48:33;;;;;;;0.10;0.10;;;;;;;;;;6004601;23;20347;-87
2021/11/24 02:50:59;;;;;;;0.10;0.10;;;;;;;;;;5981468;24;20016;-87
2021/11/24 02:53:28;;;;;;;0.10;0.10;;;;;;;;;;6004971;23;20094;-87
2021/11/24 02:55:54;;;;;;;0.10;0.10;;;;;;;;;;5981171;24;20327;-87
2021/11/24 02:58:20;;;;;;;0.10;0.10;;;;;;;;;;5981239;24;20024;-87
2021/11/24 03:00:46;;;;;;;0.10;0.10;;;;;;;;;;5981225;24;20020;-87
2021/11/24 03:03:12;;;;;;;0.10;0.10;;;;;;;;;;6004749;23;20034;-87
2021/11/24 03:05:38;;;;;;;0.10;0.10;;;;;;;;;;5981514;24;20013;-87
2021/11/24 03:08:05;;;;;;;0.10;0.10;;;;;;;;;;6004647;23;20056;-87
2021/11/24 03:10:31;;;;;;;0.10;0.10;;;;;;;;;;6004625;23;20119;-87
2021/11/24 03:12:57;;;;;;;0.10;0.10;;;;;;;;;;5981215;24;20023;-87
2021/11/24 03:15:23;;;;;;;0.10;0.10;;;;;;;;;;6004915;23;20414;-87
2021/11/24 03:17:49;;;;;;;0.10;0.10;;;;;;;;;;5981427;24;20036;-87
2021/11/24 03:20:18;;;;;;;0.10;0.10;;;;;;;;;;6004553;23;20203;-87
2021/11/24 03:22:44;;;;;;;0.10;0.10;;;;;;;;;;6004449;23;20092;-86
2021/11/24 03:25:10;;;;;;;0.10;0.10;;;;;;;;;;6004865;23;20044;-86
2021/11/24 03:27:40;;;;;;;0.10;0.10;;;;;;;;;;5980773;24;20012;-86
2021/11/24 03:30:16;;;;;;;0.10;0.10;;;;;;;;;;5981324;24;20020;-86
2021/11/24 03:32:42;;;;;;;0.10;0.10;;;;;;;;;;5981128;24;20020;-86
2021/11/24 03:35:08;;;;;;;0.10;0.10;;;;;;;;;;5981274;24;20020;-87
2021/11/24 03:37:34;;;;;;;0.10;0.10;;;;;;;;;;6004392;23;20027;-86
2021/11/24 03:40:00;;;;;;;0.10;0.10;;;;;;;;;;5981004;24;20017;-87
2021/11/24 03:42:26;;;;;;;0.03;0.03;;;;;;;;;;6004461;23;20450;-86
2021/11/24 03:44:52;;;;;;;0.05;0.05;;;;;;;;;;5980864;24;20039;-86
2021/11/24 03:47:18;;;;;;;0.10;0.10;;;;;;;;;;5980915;24;20023;-86
2021/11/24 03:49:44;;;;;;;0.10;0.10;;;;;;;;;;5980978;24;20016;-86
2021/11/24 03:52:10;;;;;;;0.10;0.10;;;;;;;;;;5980993;24;20100;-87
2021/11/24 03:54:36;;;;;;;0.10;0.10;;;;;;;;;;5980973;24;20043;-87
2021/11/24 03:57:02;;;;;;;0.10;0.10;;;;;;;;;;5980760;24;20066;-86
2021/11/24 03:59:28;;;;;;;0.10;0.10;;;;;;;;;;5980784;24;20020;-87
2021/11/24 04:01:54;;;;;;;0.10;0.10;;;;;;;;;;5980780;24;20019;-86
2021/11/24 04:04:20;;;;;;;0.10;0.10;;;;;;;;;;5980832;24;20092;-87
2021/11/24 04:06:46;;;;;;;0.00;0.00;;;;;;;;;;6004117;23;20016;-86
2021/11/24 04:09:12;;;;;;;0.10;0.10;;;;;;;;;;5980843;24;20419;-86
2021/11/24 04:11:38;;;;;;;0.10;0.10;;;;;;;;;;5981029;24;20517;-86
2021/11/24 04:14:04;;;;;;;0.10;0.10;;;;;;;;;;5980678;24;20012;-87
2021/11/24 04:16:32;;;;;;;0.10;0.10;;;;;;;;;;6004008;23;20012;-87
2021/11/24 04:19:01;;;;;;;0.10;0.10;;;;;;;;;;5980692;24;20019;-87
2021/11/24 04:21:27;;;;;;;0.10;0.10;;;;;;;;;;6003771;23;20020;-87
2021/11/24 04:23:53;;;;;;;0.10;0.10;;;;;;;;;;5980699;24;20473;-87
2021/11/24 04:26:18;;;;;;;0.10;0.10;;;;;;;;;;5980425;24;20020;-87
2021/11/24 04:28:44;;;;;;;0.10;0.10;;;;;;;;;;6004047;23;20012;-88
2021/11/24 04:31:10;;;;;;;0.10;0.10;;;;;;;;;;5980629;24;20336;-87
2021/11/24 04:33:37;;;;;;;0.10;0.10;;;;;;;;;;5980493;24;20083;-87
2021/11/24 04:36:03;;;;;;;0.10;0.10;;;;;;;;;;6004063;23;20024;-88
2021/11/24 04:38:29;;;;;;;0.10;0.10;;;;;;;;;;6003369;23;20347;-88
2021/11/24 04:40:55;;;;;;;0.10;0.10;;;;;;;;;;5980411;24;20064;-87
2021/11/24 04:43:26;;;;;;;0.10;0.10;;;;;;;;;;5980558;24;20012;-88
2021/11/24 04:45:52;;;;;;;0.10;0.10;;;;;;;;;;5980291;24;20140;-87
2021/11/24 04:48:18;;;;;;;0.10;0.10;;;;;;;;;;5980311;24;20020;-88
2021/11/24 04:50:44;;;;;;;0.10;0.10;;;;;;;;;;5980564;24;20392;-88
2021/11/24 04:53:10;;;;;;;0.10;0.10;;;;;;;;;;6003983;23;20038;-88
2021/11/24 04:55:36;;;;;;;0.10;0.10;;;;;;;;;;6003758;23;20016;-88
2021/11/24 04:58:02;;;;;;;0.10;0.10;;;;;;;;;;5980190;24;20515;-87
2021/11/24 05:00:28;;;;;;;0.10;0.10;;;;;;;;;;5980240;24;20514;-87
2021/11/24 05:02:54;;;;;;;0.10;0.10;;;;;;;;;;5980311;24;20012;-87
2021/11/24 05:05:21;;;;;;;0.10;0.10;;;;;;;;;;5980106;24;20091;-87
2021/11/24 05:07:47;;;;;;;0.10;0.10;;;;;;;;;;6003544;23;20080;-87
2021/11/24 05:10:20;;;;;;;0.10;0.10;;;;;;;;;;5130854;27;20391;-86
2021/11/24 05:12:46;;;;;;;0.10;0.10;;;;;;;;;;5095021;28;20031;-87
2021/11/24 05:15:21;;;;;;;0.10;0.10;;;;;;;;;;5129131;27;20243;-87
2021/11/24 05:17:51;;;;;;;0.00;0.00;;;;;;;;;;5109740;28;20081;-86
2021/11/24 05:20:20;;;;;;;0.10;0.10;;;;;;;;;;5091479;28;20071;-86
2021/11/24 05:22:48;;;;;;;0.10;0.10;;;;;;;;;;5091396;28;20126;-86
2021/11/24 05:25:15;;;;;;;0.10;0.10;;;;;;;;;;5091238;28;20082;-90
2021/11/24 05:27:41;;;;;;;0.10;0.10;;;;;;;;;;5074025;28;20036;-87
2021/11/24 05:30:09;;;;;;;0.10;0.10;;;;;;;;;;5090828;28;20044;-87
2021/11/24 05:32:35;;;;;;;0.10;0.10;;;;;;;;;;5091244;28;20207;-86
2021/11/24 05:35:01;;;;;;;0.10;0.10;;;;;;;;;;5074143;28;20535;-86
2021/11/24 05:37:27;;;;;;;0.10;0.10;;;;;;;;;;5091255;28;20104;-86
2021/11/24 05:39:53;;;;;;;0.10;0.10;;;;;;;;;;5091161;28;20047;-86
2021/11/24 05:42:19;;;;;;;0.10;0.10;;;;;;;;;;5073965;28;20082;-86
2021/11/24 05:44:49;;;;;;;0.10;0.10;;;;;;;;;;5091010;28;20039;-87
2021/11/24 05:47:50;;;;;;;0.10;0.10;;;;;;;;;;5091248;28;20390;-86
2021/11/24 05:50:07;;;;;;;0.00;0.00;;;;;;;;;;5090645;28;20040;-86
2021/11/24 05:52:33;;;;;;;0.10;0.10;;;;;;;;;;5090952;28;20471;-86
2021/11/24 05:54:59;;;;;;;0.10;0.10;;;;;;;;;;5090791;28;20482;-87
2021/11/24 05:57:25;;;;;;;0.10;0.10;;;;;;;;;;5073848;28;20042;-86
2021/11/24 05:59:51;;;;;;;0.10;0.10;;;;;;;;;;5124632;27;20428;-86
2021/11/24 06:02:17;;;;;;;0.10;0.10;;;;;;;;;;5090759;28;20113;-87
2021/11/24 06:04:43;;;;;;;0.10;0.10;;;;;;;;;;5073433;28;20043;-87
2021/11/24 06:07:09;;;;;;;0.10;0.10;;;;;;;;;;5090590;28;20046;-87
2021/11/24 06:09:35;;;;;;;0.10;0.10;;;;;;;;;;5090154;28;20052;-86
2021/11/24 06:12:01;;;;;;;0.10;0.10;;;;;;;;;;5073659;28;20035;-86
2021/11/24 06:14:27;;;;;;;0.10;0.10;;;;;;;;;;5090465;28;20076;-87
2021/11/24 06:16:53;;;;;;;0.10;0.10;;;;;;;;;;5090077;28;20399;-87
2021/11/24 06:19:18;;;;;;;0.10;0.10;;;;;;;;;;5090262;28;20380;-87
2021/11/24 06:21:44;;;;;;;0.10;0.10;;;;;;;;;;5076650;28;20367;-87
2021/11/24 06:24:11;;;;;;;0.10;0.10;;;;;;;;;;5060088;28;20050;-87
2021/11/24 06:26:37;;;;;;;0.10;0.10;;;;;;;;;;5076441;28;20046;-87
2021/11/24 06:29:03;;;;;;;0.10;0.10;;;;;;;;;;5076398;28;20040;-88
2021/11/24 06:31:29;;;;;;;0.10;0.10;;;;;;;;;;5076346;28;20487;-87
2021/11/24 06:33:55;;;;;;;0.10;0.10;;;;;;;;;;5076527;28;20043;-87
2021/11/24 06:36:24;;;;;;;0.10;0.10;;;;;;;;;;5076430;28;20036;-87
2021/11/24 06:38:52;;;;;;;0.10;0.10;;;;;;;;;;5076378;28;20054;-86
2021/11/24 06:41:18;;;;;;;0.10;0.10;;;;;;;;;;5076679;28;20135;-87
2021/11/24 06:43:44;;;;;;;0.10;0.10;;;;;;;;;;5076418;28;20513;-90
2021/11/24 06:46:10;;;;;;;0.10;0.10;;;;;;;;;;5076337;28;20496;-85
2021/11/24 06:48:36;;;;;;;0.10;0.10;;;;;;;;;;5059159;28;20037;-84
2021/11/24 06:51:02;;;;;;;0.10;0.10;;;;;;;;;;5076030;28;20048;-84
2021/11/24 06:53:28;;;;;;;0.10;0.10;;;;;;;;;;5076195;28;20297;-87
2021/11/24 06:55:54;;;;;;;0.10;0.10;;;;;;;;;;5059565;28;20032;-84
2021/11/24 06:58:20;;;;;;;0.10;0.10;;;;;;;;;;5076172;28;20487;-85
2021/11/24 07:00:47;;;;;;;0.10;0.10;;;;;;;;;;5076168;28;20541;-85
2021/11/24 07:03:13;;;;;;;0.10;0.10;;;;;;;;;;5059014;28;20181;-85
2021/11/24 07:05:39;;;;;;;0.10;0.10;;;;;;;;;;5078458;28;20458;-84
2021/11/24 07:08:05;;;;;;;0.10;0.10;;;;;;;;;;5075454;28;20047;-82
2021/11/24 07:10:32;;;;;;;0.10;0.10;;;;;;;;;;5075653;28;20487;-83
2021/11/24 07:12:58;;;;;;;0.10;0.10;;;;;;;;;;5075537;28;20479;-83
2021/11/24 07:15:24;;;;;;;0.32;0.10;;;;;;;;;;5075661;28;20138;-84
2021/11/24 07:17:50;;;;;;;0.10;0.10;;;;;;;;;;5075528;28;20044;-83
2021/11/24 07:20:16;;;;;;;0.10;0.10;;;;;;;;;;5075532;28;20040;-85
2021/11/24 07:22:42;;;;;;;0.10;0.10;;;;;;;;;;5075377;28;20040;-83
2021/11/24 07:25:08;;;;;;;0.10;0.10;;;;;;;;;;5075297;28;20395;-83
2021/11/24 07:27:34;;;;;;;0.10;0.10;;;;;;;;;;5058617;28;20040;-84
2021/11/24 07:30:00;;;;;;;0.10;0.10;;;;;;;;;;5108886;28;20400;-84
2021/11/24 07:32:26;;;;;;;0.10;0.10;;;;;;;;;;5074220;28;20036;-84
2021/11/24 07:34:52;;;;;;;0.10;0.10;;;;;;;;;;5075652;28;20047;-84
2021/11/24 07:37:18;;;;;;;0.10;0.10;;;;;;;;;;5075112;28;20123;-85
2021/11/24 07:39:44;;;;;;;0.10;0.10;;;;;;;;;;5075084;28;20105;-84
2021/11/24 07:42:10;;;;;;;0.10;0.10;;;;;;;;;;5075369;28;20047;-84
2021/11/24 07:44:36;;;;;;;0.10;0.10;;;;;;;;;;5075336;28;20043;-84
2021/11/24 07:47:02;;;;;;;0.10;0.10;;;;;;;;;;5074852;28;20036;-84
2021/11/24 07:49:28;;;;;;;0.10;0.10;;;;;;;;;;5074850;28;20071;-84
2021/11/24 07:51:54;;;;;;;0.10;0.10;;;;;;;;;;5074980;28;20148;-84
2021/11/24 07:54:20;;;;;;;0.10;0.10;;;;;;;;;;5074878;28;20047;-85
2021/11/24 07:56:46;;;;;;;0.10;0.10;;;;;;;;;;5074758;28;20225;-84
2021/11/24 07:59:12;;;;;;;0.10;0.10;;;;;;;;;;5075015;28;20189;-84
2021/11/24 08:01:38;;;;;;;0.10;0.10;;;;;;;;;;5074573;28;20118;-84
2021/11/24 08:04:04;;;;;;;0.10;0.10;;;;;;;;;;5074515;28;20483;-85
2021/11/24 08:06:30;;;;;;;0.00;0.00;;;;;;;;;;5074335;28;20058;-84
2021/11/24 08:08:56;;;;;;;0.10;0.10;;;;;;;;;;5074469;28;20060;-85
2021/11/24 08:11:22;;;;;;;0.10;0.10;;;;;;;;;;5074580;28;20047;-84
2021/11/24 08:13:48;;;;;;;0.10;0.10;;;;;;;;;;5074376;28;20377;-84
2021/11/24 08:16:14;;;;;;;0.10;0.10;;;;;;;;;;5091272;28;20079;-84
2021/11/24 08:18:40;;;;;;;0.10;0.10;;;;;;;;;;5074188;28;20044;-84
2021/11/24 08:21:06;;;;;;;0.10;0.10;;;;;;;;;;5057543;28;20066;-84
2021/11/24 08:23:32;;;;;;;0.10;0.10;;;;;;;;;;5074135;28;20047;-84
2021/11/24 08:25:58;;;;;;;0.10;0.10;;;;;;;;;;5074494;28;20112;-84
2021/11/24 08:28:24;;;;;;;0.10;0.10;;;;;;;;;;5074245;28;20123;-84
2021/11/24 08:30:50;;;;;;;0.10;0.10;;;;;;;;;;5074234;28;20047;-84
2021/11/24 08:33:16;;;;;;;0.10;0.10;;;;;;;;;;5073902;28;20044;-84
2021/11/24 08:35:42;;;;;;;0.10;0.10;;;;;;;;;;5057375;28;20131;-85
2021/11/24 08:38:08;;;;;;;0.10;0.10;;;;;;;;;;5074074;28;20040;-84
2021/11/24 08:40:34;;;;;;;0.10;0.10;;;;;;;;;;5073988;28;20042;-84
2021/11/24 08:43:01;;;;;;;0.10;0.10;;;;;;;;;;5074041;28;20118;-84
2021/11/24 08:45:27;;;;;;;0.10;0.10;;;;;;;;;;5074046;28;20040;-84
2021/11/24 08:47:53;;;;;;;0.00;0.00;;;;;;;;;;5073813;28;20043;-85
2021/11/24 08:50:19;;;;;;;0.10;0.10;;;;;;;;;;5073953;28;20150;-84
2021/11/24 08:52:45;;;;;;;0.10;0.10;;;;;;;;;;5073898;28;20085;-84
2021/11/24 08:55:11;;;;;;;0.10;0.10;;;;;;;;;;5073952;28;20035;-85
2021/11/24 08:57:37;;;;;;;0.10;0.10;;;;;;;;;;5073862;28;20036;-85
2021/11/24 09:00:13;;;;;;;0.10;0.10;;;;;;;;;;5073642;28;20044;-84
2021/11/24 09:02:39;;;;;;;0.10;0.10;;;;;;;;;;5073833;28;20478;-85
2021/11/24 09:05:05;;;;;;;0.10;0.10;;;;;;;;;;5073927;28;20112;-84
2021/11/24 09:07:31;;;;;;;0.10;0.10;;;;;;;;;;5073703;28;20044;-84
2021/11/24 09:09:57;;;;;;;0.10;0.10;;;;;;;;;;5073583;28;20056;-84
2021/11/24 09:12:23;;;;;;;0.10;0.10;;;;;;;;;;5073722;28;20040;-84
2021/11/24 09:14:49;;;;;;;0.10;0.10;;;;;;;;;;5073632;28;20036;-84
2021/11/24 09:17:15;;;;;;;0.10;0.10;;;;;;;;;;5073375;28;20650;-84
2021/11/24 09:19:41;;;;;;;0.10;0.10;;;;;;;;;;5073759;28;20422;-84
2021/11/24 09:22:07;;;;;;;0.10;0.10;;;;;;;;;;5074052;28;20040;-84
2021/11/24 09:24:33;;;;;;;0.10;0.10;;;;;;;;;;5073654;28;20391;-84
2021/11/24 09:27:03;;;;;;;0.10;0.10;;;;;;;;;;5073767;28;20048;-84
2021/11/24 09:29:29;;;;;;;0.10;0.10;;;;;;;;;;5056954;28;20064;-84
2021/11/24 09:31:55;;;;;;;0.10;0.10;;;;;;;;;;5090498;28;20056;-84
2021/11/24 09:34:22;;;;;;;0.10;0.10;;;;;;;;;;5073646;28;20071;-84
2021/11/24 09:36:48;;;;;;;0.10;0.10;;;;;;;;;;5056787;28;20047;-85
2021/11/24 09:39:16;;;;;;;0.10;0.10;;;;;;;;;;5073453;28;20036;-85
2021/11/24 09:41:43;;;;;;;0.10;0.10;;;;;;;;;;5073500;28;20563;-84
2021/11/24 09:44:09;;;;;;;0.10;0.10;;;;;;;;;;5073623;28;20505;-84
2021/11/24 09:46:35;;;;;;;0.10;0.10;;;;;;;;;;5056692;28;20036;-85
2021/11/24 09:49:04;;;;;;;0.10;0.10;;;;;;;;;;5073823;28;20044;-84
2021/11/24 09:51:31;;;;;;;0.10;0.10;;;;;;;;;;5073809;28;20035;-85
2021/11/24 09:53:58;;;;;;;0.10;0.10;;;;;;;;;;5073461;28;20506;-84
2021/11/24 09:56:24;;;;;;;0.10;0.10;;;;;;;;;;5075777;28;20196;-84
2021/11/24 09:58:50;;;;;;;0.10;0.10;;;;;;;;;;5077040;28;20295;-85
2021/11/24 10:01:16;;;;;;;0.10;0.10;;;;;;;;;;5077240;28;20108;-85
2021/11/24 10:03:43;;;;;;;0.10;0.10;;;;;;;;;;5060556;28;20044;-84
2021/11/24 10:06:09;;;;;;;0.10;0.10;;;;;;;;;;5077070;28;20122;-84
2021/11/24 10:08:35;;;;;;;0.10;0.10;;;;;;;;;;5076553;28;20135;-84
2021/11/24 10:11:01;;;;;;;0.10;0.10;;;;;;;;;;5077091;28;20105;-84
2021/11/24 10:13:27;;;;;;;0.10;0.10;;;;;;;;;;5076770;28;20031;-84
2021/11/24 10:15:56;;;;;;;0.10;0.10;;;;;;;;;;5076837;28;20032;-84
2021/11/24 10:18:29;;;;;;;0.10;0.10;;;;;;;;;;5059939;28;20123;-84
2021/11/24 10:21:02;;;;;;;0.10;0.10;;;;;;;;;;5077136;28;20043;-85
2021/11/24 10:23:36;;;;;;;0.10;0.10;;;;;;;;;;5096740;28;20352;-85
2021/11/24 10:26:21;;;;;;;0.10;0.10;;;;;;;;;;5078150;28;20064;-84
2021/11/24 10:28:55;;;;;;;0.10;0.10;;;;;;;;;;5076545;28;20133;-85
2021/11/24 10:31:24;;;;;;;0.10;0.10;;;;;;;;;;5076456;28;20040;-85
2021/11/24 10:33:50;;;;;;;0.10;0.10;;;;;;;;;;5093507;28;20067;-84
2021/11/24 10:36:17;;;;;;;0.10;0.10;;;;;;;;;;5076305;28;20036;-84
2021/11/24 10:38:44;;;;;;;0.10;0.10;;;;;;;;;;5076616;28;20130;-84
2021/11/24 10:41:12;;;;;;;0.10;0.10;;;;;;;;;;5076405;28;20051;-84
2021/11/24 10:43:42;;;;;;;0.10;0.10;;;;;;;;;;5076276;28;20130;-84
2021/11/24 10:46:09;;;;;;;0.10;0.10;;;;;;;;;;5110131;28;20040;-84
2021/11/24 10:48:34;;;;;;;0.10;0.10;;;;;;;;;;5076262;28;20063;-84
2021/11/24 10:51:02;;;;;;;0.10;0.10;;;;;;;;;;5076336;28;20483;-85
2021/11/24 10:53:28;;;;;;;0.10;0.10;;;;;;;;;;5076266;28;20040;-85
2021/11/24 10:55:54;;;;;;;0.10;0.10;;;;;;;;;;5076443;28;20039;-84
2021/11/24 10:58:24;;;;;;;0.10;0.10;;;;;;;;;;5076107;28;20399;-85
2021/11/24 11:00:51;;;;;;;0.10;0.10;;;;;;;;;;5076219;28;20540;-84
2021/11/24 11:03:17;;;;;;;0.10;0.10;;;;;;;;;;5076036;28;20040;-84
2021/11/24 11:05:45;;;;;;;0.10;0.10;;;;;;;;;;5059289;28;20043;-85
2021/11/24 11:08:22;;;;;;;0.10;0.10;;;;;;;;;;5075477;28;20038;-84
2021/11/24 11:10:49;;;;;;;0.10;0.10;;;;;;;;;;5075895;28;20104;-84
2021/11/24 11:13:19;;;;;;;0.10;0.10;;;;;;;;;;5075941;28;20063;-84
2021/11/24 11:15:48;;;;;;;0.10;0.10;;;;;;;;;;5059023;28;20061;-84
2021/11/24 11:18:15;;;;;;;0.10;0.10;;;;;;;;;;5075649;28;20490;-84
2021/11/24 11:20:54;;;;;;;0.10;0.10;;;;;;;;;;5075917;28;20075;-84
2021/11/24 11:23:22;;;;;;;0.10;0.10;;;;;;;;;;5075790;28;20504;-84
2021/11/24 11:25:55;;;;;;;0.10;0.10;;;;;;;;;;5075700;28;20040;-84
2021/11/24 11:28:22;;;;;;;0.10;0.10;;;;;;;;;;5075118;28;20040;-85
2021/11/24 11:30:48;;;;;;;0.10;0.10;;;;;;;;;;5075753;28;20101;-84
2021/11/24 11:33:15;;;;;;;0.20;0.10;;;;;;;;;;5075327;28;20040;-84
2021/11/24 11:35:41;;;;;;;0.10;0.10;;;;;;;;;;5075341;28;20040;-84
2021/11/24 11:38:07;;;;;;;0.10;0.10;;;;;;;;;;5075416;28;20097;-84
2021/11/24 11:40:35;;;;;;;0.10;0.10;;;;;;;;;;5075584;28;20040;-84
2021/11/24 11:43:01;;;;;;;0.10;0.10;;;;;;;;;;5075344;28;20378;-84
2021/11/24 11:45:29;;;;;;;0.10;0.10;;;;;;;;;;5075324;28;20050;-84
2021/11/24 11:47:58;;;;;;;0.10;0.10;;;;;;;;;;5074952;28;20072;-84
2021/11/24 11:50:43;;;;;;;0.10;0.10;;;;;;;;;;5058061;28;20035;-84
2021/11/24 11:53:10;;;;;;;0.10;0.10;;;;;;;;;;5058138;28;20055;-84
2021/11/24 11:55:36;;;;;;;0.10;0.10;;;;;;;;;;5091840;28;20048;-84
2021/11/24 11:58:02;;;;;;;0.10;0.10;;;;;;;;;;5074653;28;20047;-84
2021/11/24 12:00:31;;;;;;;0.10;0.10;;;;;;;;;;5074710;28;20035;-84
2021/11/24 12:02:58;;;;;;;0.10;0.10;;;;;;;;;;5074903;28;20364;-84
2021/11/24 12:05:24;;;;;;;0.10;0.10;;;;;;;;;;5074578;28;20055;-84
2021/11/24 12:08:09;;;;;;;0.10;0.10;;;;;;;;;;5057797;28;20043;-84
2021/11/24 12:10:54;;;;;;;0.10;0.10;;;;;;;;;;5091503;28;20547;-85
2021/11/24 12:13:24;;;;;;;0.20;0.20;;;;;;;;;;5074539;28;20098;-84
2021/11/24 12:15:50;;;;;;;0.10;0.10;;;;;;;;;;5074399;28;20040;-84
2021/11/24 12:18:16;;;;;;;0.10;0.10;;;;;;;;;;5073800;28;20040;-84
2021/11/24 12:20:43;;;;;;;0.10;0.10;;;;;;;;;;5074438;28;20071;-83
2021/11/24 12:23:13;;;;;;;0.10;0.10;;;;;;;;;;5074469;28;20040;-84
2021/11/24 12:25:39;;;;;;;0.10;0.10;;;;;;;;;;5074467;28;20524;-84
2021/11/24 12:28:09;;;;;;;0.20;0.20;;;;;;;;;;5074090;28;20036;-84
2021/11/24 12:33:32;;;;;;;0.10;0.10;;;;;;;;;;5074531;28;20368;-84
2021/11/24 12:36:03;;;;;;;0.10;0.10;;;;;;;;;;5074286;28;20032;-84
2021/11/24 12:38:33;;;;;;;0.10;0.10;;;;;;;;;;5074167;28;20051;-85
2021/11/24 12:41:00;;;;;;;0.10;0.10;;;;;;;;;;5074237;28;20476;-84
2021/11/24 12:43:28;;;;;;;0.10;0.10;;;;;;;;;;5074120;28;20097;-84
2021/11/24 12:46:00;;;;;;;0.10;0.10;;;;;;;;;;5074256;28;20055;-84
2021/11/24 12:48:44;;;;;;;0.10;0.10;;;;;;;;;;5057308;28;20075;-84
2021/11/24 12:51:10;;;;;;;0.10;0.10;;;;;;;;;;5057519;28;20052;-85
2021/11/24 12:53:36;;;;;;;0.10;0.10;;;;;;;;;;5074101;28;20040;-84
2021/11/24 12:56:06;;;;;;;0.10;0.10;;;;;;;;;;5074148;28;20119;-84
2021/11/24 12:58:32;;;;;;;0.10;0.10;;;;;;;;;;5073844;28;20498;-85
2021/11/24 13:01:04;;;;;;;0.10;0.10;;;;;;;;;;5074009;28;20051;-84
2021/11/24 13:03:31;;;;;;;0.10;0.10;;;;;;;;;;5074109;28;20055;-84
2021/11/24 13:05:57;;;;;;;0.10;0.10;;;;;;;;;;5057142;28;20051;-84
2021/11/24 13:08:23;;;;;;;0.10;0.10;;;;;;;;;;5073438;28;20056;-85
2021/11/24 13:11:02;;;;;;;0.10;0.10;;;;;;;;;;5073930;28;20055;-86
2021/11/24 13:13:28;;;;;;;0.10;0.10;;;;;;;;;;5073817;28;20055;-85
2021/11/24 13:15:54;;;;;;;0.20;0.20;;;;;;;;;;5073742;28;20036;-85
2021/11/24 13:18:21;;;;;;;0.10;0.10;;;;;;;;;;5073823;28;20033;-85
2021/11/24 13:20:47;;;;;;;0.10;0.10;;;;;;;;;;5088566;28;20053;-86
2021/11/24 13:23:13;;;;;;;0.10;0.10;;;;;;;;;;5093981;28;20520;-84
2021/11/24 13:25:40;;;;;;;0.10;0.10;;;;;;;;;;5046050;28;20032;-85
2021/11/24 13:28:08;;;;;;;0.10;0.10;;;;;;;;;;5073497;28;20043;-85
2021/11/24 13:30:41;;;;;;;0.10;0.10;;;;;;;;;;5074743;28;20583;-85
2021/11/24 13:33:08;;;;;;;0.10;0.10;;;;;;;;;;5061494;28;20428;-85
2021/11/24 13:35:43;;;;;;;0.10;0.10;;;;;;;;;;5060817;28;20506;-83
2021/11/24 13:38:11;;;;;;;0.10;0.10;;;;;;;;;;5077481;28;20094;-84
2021/11/24 13:40:42;;;;;;;0.10;0.10;;;;;;;;;;5060783;28;20134;-84
2021/11/24 13:43:08;;;;;;;0.10;0.10;;;;;;;;;;5060621;28;20048;-84
2021/11/24 13:45:34;;;;;;;0.10;0.10;;;;;;;;;;5060710;28;20515;-83
2021/11/24 13:48:07;;;;;;;0.10;0.10;;;;;;;;;;5060588;28;20048;-84
2021/11/24 13:50:33;;;;;;;0.20;0.20;;;;;;;;;;5060640;28;20368;-84
2021/11/24 13:53:18;;;;;;;0.10;0.10;;;;;;;;;;5060338;28;20062;-84
2021/11/24 13:55:44;;;;;;;0.00;0.00;;;;;;;;;;5077326;28;20081;-84
2021/11/24 13:58:09;;;;;;;0.10;0.10;;;;;;;;;;5077292;28;20036;-84
2021/11/24 14:00:35;;;;;;;0.10;0.10;;;;;;;;;;5076848;28;20036;-85
2021/11/24 14:03:01;;;;;;;0.10;0.10;;;;;;;;;;5077201;28;20071;-83
2021/11/24 14:05:33;;;;;;;0.10;0.10;;;;;;;;;;5060745;28;20134;-83
2021/11/24 14:07:59;;;;;;;0.10;0.10;;;;;;;;;;5076693;28;20119;-85
2021/11/24 14:10:28;;;;;;;0.10;0.10;;;;;;;;;;5076898;28;20083;-86
2021/11/24 14:12:55;;;;;;;0.10;0.10;;;;;;;;;;5076805;28;20074;-88
2021/11/24 14:15:24;;;;;;;0.10;0.10;;;;;;;;;;5077031;28;20484;-86
2021/11/24 14:17:56;;;;;;;0.10;0.10;;;;;;;;;;5076754;28;20047;-88
2021/11/24 14:20:26;;;;;;;0.10;0.10;;;;;;;;;;5060201;28;20093;-85
2021/11/24 14:22:58;;;;;;;0.10;0.10;;;;;;;;;;5077055;28;20092;-84
2021/11/24 14:25:25;;;;;;;0.10;0.10;;;;;;;;;;5076858;28;20039;-88
2021/11/24 14:27:52;;;;;;;0.10;0.10;;;;;;;;;;5060635;28;20097;-94
2021/11/24 14:30:18;;;;;;;0.10;0.10;;;;;;;;;;5059977;28;20044;-87
2021/11/24 14:32:45;;;;;;;0.10;0.10;;;;;;;;;;5060239;28;20028;-86
2021/11/24 14:35:11;;;;;;;0.10;0.10;;;;;;;;;;5087857;28;20031;-86
2021/11/24 14:37:37;;;;;;;0.10;0.10;;;;;;;;;;5096658;28;20386;-86
2021/11/24 14:40:04;;;;;;;0.10;0.10;;;;;;;;;;5063065;28;20046;-86
2021/11/24 14:42:30;;;;;;;0.10;0.10;;;;;;;;;;5062798;28;20479;-87
2021/11/24 14:44:56;;;;;;;0.10;0.10;;;;;;;;;;5063049;28;20065;-87